Overview Statistics Trail Chart Weather Telemetry Raw packets
 

This is the latest recevied weather packets stored in our database for station/object K5FEP. If no packets are shown the sender has not sent any weather packets the latest 10 day(s).

<< 95 96 97 98 99 100 101 >>
Time Temp. Humidity Pressure Rain* Wind** Luminosity Snow
1787929743 28.89° C 57% 1016.8 hPa 0 mm - 755 W/m² -
1787929439 28.89° C 58% 1016.9 hPa 0 mm - 743 W/m² -
1787929136 28.33° C 59% 1016.9 hPa 0 mm - 730 W/m² -
1787928832 28.89° C 59% 1016.8 hPa 0 mm - 720 W/m² -
1787928531 28.33° C 59% 1017 hPa 0 mm - 707 W/m² -
1787928230 28.89° C 59% 1016.8 hPa 0 mm - 686 W/m² -
1787927929 28.33° C 62% 1016.8 hPa 0 mm - 673 W/m² -
1787927624 27.78° C 62% 1016.8 hPa 0 mm - 652 W/m² -
1787927319 27.78° C 63% 1016.7 hPa 0 mm - 632 W/m² -
1787927015 27.78° C 63% 1016.7 hPa 0 mm - 626 W/m² -
1787926714 27.22° C 65% 1016.7 hPa 0 mm - 606 W/m² -
1787926413 27.22° C 63% 1016.6 hPa 0 mm - 583 W/m² -
1787926108 26.67° C 65% 1016.8 hPa 0 mm - 558 W/m² -
1787925807 26.11° C 69% 1016.8 hPa 0 mm - 534 W/m² -
1787925507 26.67° C 66% 1016.7 hPa 0 mm - 543 W/m² -
1787925201 26.11° C 68% 1016.6 hPa 0 mm - 501 W/m² -
1787924900 26.11° C 69% 1016.8 hPa 0 mm - 487 W/m² -
1787924595 26.11° C 70% 1016.7 hPa 0 mm - 469 W/m² -
1787924290 25.56° C 73% 1016.6 hPa 0 mm - 447 W/m² -
1787923986 25° C 75% 1016.5 hPa 0 mm - 436 W/m² -
1787923686 24.44° C 75% 1016.7 hPa 0 mm - 397 W/m² -
1787923381 24.44° C 75% 1016.3 hPa 0 mm - 374 W/m² -
1787923075 24.44° C 77% 1016.4 hPa 0 mm - 347 W/m² -
1787922770 24.44° C 78% 1016.3 hPa 0 mm - 272 W/m² -
1787922469 24.44° C 77% 1016.2 hPa 0 mm - 157 W/m² -

* Rain latest hour (hover to see other rain measurements)
** Current wind speed in m/s (hover to see current wind gust speed)